Pagrindinis puslapis
METAR-TAF:

METAR-TAF

Oro uostai :

Ulan Batoras, Mongolija

platuma: 47-55N, ilguma: 106-52E, Aukštis: 1306 m

Dabartinis oras

Ataskaita buvo paskelbta 1 valandą ir 8 minutes, ne 16:00 UTC
Vėjas 2 kt nuo kintamojo kryptimis
Temperatūra -5°C
Drėgmė 79%
Slėgis 1015 hPa
Matomumas 10 km arba daugiau
Išsisklaidę debesys ne aukštis 10000 ft

METAR: ZMUB 201600Z VRB01MPS 9999 SCT100 M05/M08 Q1015 NOSIG RMK QFE654.1 77 NT

Laikas: 01:08 (17:08 UTC)

Prognozė

Ataskaita buvo paskelbta 6 valandos ir 8 minutes, ne 11:00 UTC
Prognozė galioja nuo 20 metu 12 UTC su 21 metu 18 UTC
Vėjas 4 kt nuo kintamojo kryptimis
Matomumas 10 km arba daugiau
Išsisklaidę debesys ne aukštis 10000 ft
Tapsmas
nuo 20 metu 23 UTC su 21 metu 01 UTC
Matomumas: 8000 m
Išsisklaidę debesys ne aukštis 3300 ft
Išsisklaidę debesys ne aukštis 10000 ft
Tapsmas
nuo 21 metu 04 UTC su 21 metu 06 UTC
Matomumas 10 km arba daugiau

TAF: ZMUB 201100Z 2012/2118 VRB02MPS 9999 SCT100 TNM10/2023Z TX09/2106Z BECMG 2023/2101 8000 SCT033 SCT100 BECMG 2104/2106 9999 NSW

Orai ataskaitas ir orų prognozės (METAR, TAF).

turimą stotys yra geltonos ir raudonos taškus žemėlapyje.

Perkelti pele per norėdami pamatyti stoties vardą.

Tada spustelėkite, norėdami matyti oro stebėjimo ir prognozės.

Norėdami pakeisti žemėlapį: spustelėkite ant žalios mygtukų su juodo kryžiaus žemyn,; žalią mygtuką su brūkšneliu, jei norite nutolinti; arba žalių rodyklių gretimoms žemėlapius.


METAR-TAF: